^^
Grace C. Lehan Memorial Weather Station Historical Data
Daily Summary for September 23, 2022 Units:  English    Metric   Both
Daily Weekly Monthly Yearly
  High: Low: Average:
Temperature: 60.7 °F 49.2 °F 54.4 °F
Dew Point: 51.6 °F 38.3 °F 43.2 °F
Humidity: 83% 49% 67%
Wind Speed: 7.8mph 0mph 2.7mph
Wind Gust: 24mph - -
Wind- - NW
Pressure: 29.94 in 29.69 in -
Precipitation: 0.00 in    
 
 
Tabular Data for September 23, 2022
Time Temperature Dew Point Pressure Wind Wind Speed Wind Gust Humidity Rainfall Rate (Hourly) solar
00:04 57 °F 51.6 °F 29.69 in Calm     82% 0.00 in 0 W/m2
00:09 57 °F 51.5 °F 29.69 in WNW 0.9 mph 5 mph 82% 0.00 in 0 W/m2
00:14 56.9 °F 51.1 °F 29.70 in WNW 0.8 mph 10 mph 81% 0.00 in 0 W/m2
00:19 56.9 °F 51.1 °F 29.70 in NW 0.8 mph 10 mph 81% 0.00 in 0 W/m2
00:24 56.8 °F 50.8 °F 29.70 in WNW 1.5 mph 12 mph 80.2% 0.00 in 0 W/m2
00:29 56.8 °F 50.4 °F 29.70 in NW 0.8 mph 12 mph 79.1% 0.00 in 0 W/m2
00:34 56.7 °F 50.1 °F 29.70 in NW 2.7 mph 12 mph 78.3% 0.00 in 0 W/m2
00:39 56.7 °F 49.9 °F 29.71 in NNW 0.9 mph 10 mph 77.9% 0.00 in 0 W/m2
00:44 56.7 °F 49.6 °F 29.71 in NW 1.6 mph 10 mph 77.2% 0.00 in 0 W/m2
00:49 56.6 °F 49.5 °F 29.71 in West 0.7 mph 10 mph 76.8% 0.00 in 0 W/m2
00:54 56.6 °F 49.4 °F 29.71 in WNW 2 mph 10 mph 76.7% 0.00 in 0 W/m2
00:59 56.5 °F 49.2 °F 29.71 in NW 1 mph 12 mph 76.4% 0.00 in 0 W/m2
01:04 56.4 °F 49.2 °F 29.71 in NW 2.4 mph 12 mph 76.6% 0.00 in 0 W/m2
01:09 56.3 °F 49 °F 29.71 in NW 0.7 mph 11 mph 76.5% 0.00 in 0 W/m2
01:14 56.2 °F 49.1 °F 29.72 in NW 0.8 mph 11 mph 77% 0.00 in 0 W/m2
01:19 56 °F 48.7 °F 29.72 in WNW 0.7 mph 11 mph 76.5% 0.00 in 0 W/m2
01:24 55.8 °F 48.5 °F 29.72 in WNW 0.2 mph 11 mph 76.5% 0.00 in 0 W/m2
01:29 55.6 °F 48.6 °F 29.72 in WNW 2.1 mph 12 mph 77% 0.00 in 0 W/m2
01:34 55.4 °F 48.5 °F 29.72 in NW 0.1 mph 12 mph 77.4% 0.00 in 0 W/m2
01:39 55.2 °F 48.6 °F 29.72 in NW 0.6 mph 7 mph 78.4% 0.00 in 0 W/m2
01:44 55 °F 48.3 °F 29.72 in WNW 1.3 mph 7 mph 78.1% 0.00 in 0 W/m2
01:49 54.8 °F 48.4 °F 29.73 in NW 0.1 mph 7 mph 79% 0.00 in 0 W/m2
01:54 54.6 °F 48.3 °F 29.73 in WNW 0.2 mph 7 mph 79.2% 0.00 in 0 W/m2
01:59 54.4 °F 48.4 °F 29.73 in WNW 0.1 mph 7 mph 79.8% 0.00 in 0 W/m2
02:04 54.2 °F 48.3 °F 29.72 in WNW 0.3 mph 7 mph 80.4% 0.00 in 0 W/m2
02:09 54 °F 48.3 °F 29.73 in WNW 1.1 mph 10 mph 80.9% 0.00 in 0 W/m2
02:14 53.8 °F 48.1 °F 29.72 in WNW 1.3 mph 10 mph 81% 0.00 in 0 W/m2
02:19 53.6 °F 47.9 °F 29.72 in WNW 0.5 mph 10 mph 81% 0.00 in 0 W/m2
02:24 53.4 °F 47.8 °F 29.73 in WNW 2.4 mph 11 mph 81% 0.00 in 0 W/m2
02:29 53.3 °F 47.8 °F 29.73 in WNW 0.5 mph 11 mph 81.6% 0.00 in 0 W/m2
02:34 53.2 °F 47.9 °F 29.72 in NW 0.2 mph 11 mph 82% 0.00 in 0 W/m2
02:39 53.1 °F 47.7 °F 29.72 in NW 0.5 mph 7 mph 82% 0.00 in 0 W/m2
02:44 53 °F 47.6 °F 29.72 in NW 0.9 mph 7 mph 82% 0.00 in 0 W/m2
02:49 52.8 °F 47.5 °F 29.72 in NW 0.6 mph 7 mph 82% 0.00 in 0 W/m2
02:54 52.7 °F 47.4 °F 29.73 in NW 0.4 mph 7 mph 82% 0.00 in 0 W/m2
02:59 52.6 °F 47.3 °F 29.72 in NW 1 mph 7 mph 82% 0.00 in 0 W/m2
03:04 52.5 °F 47.2 °F 29.72 in NW 1.5 mph 10 mph 82% 0.00 in 0 W/m2
03:09 52.4 °F 47.1 °F 29.72 in WNW 2.9 mph 12 mph 82% 0.00 in 0 W/m2
03:14 52.4 °F 47.1 °F 29.73 in WNW 2.6 mph 12 mph 82% 0.00 in 0 W/m2
03:19 52.3 °F 47 °F 29.73 in WNW 1.6 mph 12 mph 82% 0.00 in 0 W/m2
03:24 52.3 °F 46.9 °F 29.73 in WNW 0.6 mph 12 mph 82% 0.00 in 0 W/m2
03:29 52.2 °F 46.8 °F 29.73 in WNW 0.3 mph 12 mph 82% 0.00 in 0 W/m2
03:34 52 °F 46.8 °F 29.74 in WNW 1.5 mph 12 mph 82.1% 0.00 in 0 W/m2
03:39 51.9 °F 46.8 °F 29.74 in WNW 0.3 mph 12 mph 82.6% 0.00 in 0 W/m2
03:44 51.8 °F 46.5 °F 29.74 in WNW 0.4 mph 12 mph 82.3% 0.00 in 0 W/m2
03:49 51.6 °F 46.7 °F 29.74 in Calm   12 mph 83% 0.00 in 0 W/m2
03:54 51.5 °F 46.5 °F 29.73 in WNW 1.8 mph 12 mph 83% 0.00 in 0 W/m2
03:59 51.3 °F 46.4 °F 29.73 in WNW 0.8 mph 12 mph 83% 0.00 in 0 W/m2
04:00 51.3 °F 46.3 °F 29.73 in Calm   12 mph 83% 0.00 in 0 W/m2
04:09 51.1 °F 46.1 °F 29.73 in WNW 2.9 mph 10 mph 83% 0.00 in 0 W/m2
04:14 51 °F 46 °F 29.73 in WNW 3.2 mph 12 mph 83% 0.00 in 0 W/m2
04:19 51 °F 45.7 °F 29.73 in WNW 2.4 mph 12 mph 82% 0.00 in 0 W/m2
04:24 51 °F 45.7 °F 29.74 in WNW 2 mph 14 mph 82% 0.00 in 0 W/m2
04:29 51 °F 45.7 °F 29.74 in NW 1.8 mph 14 mph 82% 0.00 in 0 W/m2
04:34 50.9 °F 45.5 °F 29.74 in WNW 2.2 mph 14 mph 81.8% 0.00 in 0 W/m2
04:39 50.9 °F 45.3 °F 29.74 in WNW 1 mph 11 mph 81% 0.00 in 0 W/m2
04:44 50.8 °F 45.4 °F 29.75 in WNW 0.6 mph 11 mph 81.5% 0.00 in 0 W/m2
04:49 50.8 °F 45.2 °F 29.75 in WNW 0.5 mph 11 mph 81% 0.00 in 0 W/m2
04:54 50.7 °F 45.1 °F 29.75 in WNW 1.6 mph 11 mph 81% 0.00 in 0 W/m2
04:59 50.6 °F 45 °F 29.76 in WNW 1.3 mph 11 mph 81% 0.00 in 0 W/m2
05:04 50.6 °F 45 °F 29.76 in WNW 1 mph 7 mph 81% 0.00 in 0 W/m2
05:09 50.5 °F 44.7 °F 29.76 in WNW 3.2 mph 12 mph 80.5% 0.00 in 0 W/m2
05:14 50.5 °F 44.6 °F 29.76 in WNW 2 mph 12 mph 80% 0.00 in 0 W/m2
05:19 50.5 °F 44.5 °F 29.76 in WNW 3.4 mph 14 mph 79.8% 0.00 in 0 W/m2
05:24 50.5 °F 44.2 °F 29.76 in WNW 1.7 mph 14 mph 79% 0.00 in 0 W/m2
05:29 50.4 °F 44.2 °F 29.76 in NW 2.4 mph 14 mph 79% 0.00 in 0 W/m2
05:34 50.4 °F 44.1 °F 29.77 in NW 1.6 mph 14 mph 79% 0.00 in 0 W/m2
05:39 50.3 °F 44.1 °F 29.77 in NNW 0.1 mph 11 mph 79% 0.00 in 0 W/m2
05:44 50.2 °F 44 °F 29.77 in NW 0.6 mph 11 mph 79% 0.00 in 0 W/m2
05:49 50.1 °F 43.9 °F 29.77 in NNW 0.5 mph 11 mph 79% 0.00 in 0 W/m2
05:54 50 °F 43.8 °F 29.77 in NNW 1.1 mph 11 mph 79% 0.00 in 0 W/m2
05:59 49.9 °F 43.7 °F 29.77 in WNW 1.1 mph 11 mph 79% 0.00 in 0 W/m2
06:04 49.8 °F 43.6 °F 29.77 in WNW 2 mph 11 mph 79% 0.00 in 0 W/m2
06:09 49.7 °F 43.5 °F 29.78 in NW 1.8 mph 10 mph 79% 0.00 in 0 W/m2
06:14 49.7 °F 43.5 °F 29.78 in NW 3.2 mph 14 mph 79% 0.00 in 0 W/m2
06:19 49.7 °F 43.2 °F 29.78 in NNW 0.7 mph 14 mph 78.1% 0.00 in 0 W/m2
06:24 49.7 °F 43.3 °F 29.78 in WNW 3.1 mph 14 mph 78.5% 0.00 in 0 W/m2
06:29 49.7 °F 43.1 °F 29.78 in NW 3.5 mph 15 mph 78% 0.00 in 0 W/m2
06:34 49.7 °F 43.1 °F 29.78 in NW 3.4 mph 15 mph 78% 0.00 in 0 W/m2
06:39 49.7 °F 42.9 °F 29.79 in NW 3.3 mph 16 mph 77.4% 0.00 in 0 W/m2
06:44 49.7 °F 42.8 °F 29.80 in NNW 0.8 mph 16 mph 77% 0.00 in 5 W/m2
06:49 49.7 °F 42.8 °F 29.80 in NW 1.1 mph 16 mph 77.3% 0.00 in 7 W/m2
06:54 49.6 °F 42.7 °F 29.80 in NW 2.2 mph 16 mph 77% 0.00 in 11 W/m2
06:59 49.6 °F 42.7 °F 29.81 in NW 4.8 mph 16 mph 77% 0.00 in 21 W/m2
07:04 49.7 °F 42.7 °F 29.81 in NW 2.5 mph 16 mph 77% 0.00 in 23 W/m2
07:09 49.8 °F 42.8 °F 29.81 in NW 2.5 mph 14 mph 77% 0.00 in 25 W/m2
07:14 49.9 °F 42.9 °F 29.81 in NW 2.6 mph 14 mph 76.9% 0.00 in 37 W/m2
07:19 50 °F 42.8 °F 29.81 in NNW 2.3 mph 14 mph 76.2% 0.00 in 51 W/m2
07:24 50.1 °F 43 °F 29.82 in NW 2 mph 14 mph 76.3% 0.00 in 51 W/m2
07:29 50.2 °F 42.7 °F 29.82 in NNW 2.4 mph 14 mph 75.3% 0.00 in 42 W/m2
07:34 50.3 °F 42.7 °F 29.82 in WNW 2.8 mph 14 mph 75% 0.00 in 53 W/m2
07:39 50.4 °F 42.8 °F 29.82 in WNW 3.1 mph 19 mph 75% 0.00 in 51 W/m2
07:44 50.4 °F 42.8 °F 29.82 in WNW 1.9 mph 19 mph 75% 0.00 in 56 W/m2
07:49 50.5 °F 42.9 °F 29.82 in WNW 3.4 mph 19 mph 75% 0.00 in 62 W/m2
07:54 50.5 °F 42.9 °F 29.82 in NW 0.8 mph 19 mph 75% 0.00 in 74 W/m2
07:59 50.6 °F 43 °F 29.82 in NW 2.2 mph 19 mph 75% 0.00 in 84 W/m2
08:00 50.6 °F 43 °F 29.82 in Calm   19 mph 75% 0.00 in 63 W/m2
08:09 50.7 °F 43.1 °F 29.82 in WNW 0.9 mph 6 mph 75% 0.00 in 60 W/m2
08:14 50.8 °F 43.1 °F 29.82 in NW 2.7 mph 13 mph 74.9% 0.00 in 74 W/m2
08:19 50.9 °F 42.9 °F 29.82 in WNW 1.8 mph 13 mph 74% 0.00 in 77 W/m2
08:24 50.9 °F 43 °F 29.82 in NW 2.9 mph 13 mph 74.2% 0.00 in 130 W/m2
08:29 51.1 °F 43.1 °F 29.82 in NW 1.6 mph 13 mph 74% 0.00 in 128 W/m2
08:34 51.3 °F 43.6 °F 29.82 in NW 2.6 mph 13 mph 74.8% 0.00 in 123 W/m2
08:39 51.5 °F 43.3 °F 29.82 in NW 1.2 mph 11 mph 73.5% 0.00 in 207 W/m2
08:44 51.8 °F 43.5 °F 29.83 in NW 3.8 mph 13 mph 73.2% 0.00 in 214 W/m2
08:49 52.1 °F 43.5 °F 29.83 in NW 1.7 mph 13 mph 72.4% 0.00 in 160 W/m2
08:54 52.3 °F 43.5 °F 29.82 in NW 3.2 mph 19 mph 71.9% 0.00 in 251 W/m2
08:59 52.4 °F 43.6 °F 29.83 in NW 4.8 mph 19 mph 71.8% 0.00 in 262 W/m2
09:04 52.6 °F 43.6 °F 29.83 in NW 5 mph 19 mph 71.1% 0.00 in 262 W/m2
09:09 53.2 °F 43.8 °F 29.83 in NW 3.1 mph 17 mph 70.4% 0.00 in 592 W/m2
09:14 54.1 °F 44.6 °F 29.83 in WNW 2.1 mph 17 mph 70.3% 0.00 in 531 W/m2
09:19 55 °F 44.9 °F 29.83 in NW 3 mph 17 mph 68.7% 0.00 in 628 W/m2
09:24 55.8 °F 45.3 °F 29.83 in NNW 2 mph 17 mph 67.7% 0.00 in 682 W/m2
09:29 56.5 °F 45.7 °F 29.83 in WNW 3.5 mph 17 mph 66.9% 0.00 in 635 W/m2
09:34 57.1 °F 45.7 °F 29.83 in NW 2.4 mph 17 mph 65.7% 0.00 in 689 W/m2
09:39 57.7 °F 46.2 °F 29.83 in NW 3.4 mph 17 mph 65.4% 0.00 in 608 W/m2
09:44 58.1 °F 46.4 °F 29.83 in WNW 2.3 mph 17 mph 65% 0.00 in 613 W/m2
09:49 58.4 °F 46.4 °F 29.83 in NNW 1.6 mph 17 mph 64.2% 0.00 in 666 W/m2
09:54 58.9 °F 46.5 °F 29.83 in WNW 2.4 mph 17 mph 63.4% 0.00 in 657 W/m2
09:59 59.5 °F 47 °F 29.82 in NW 0.9 mph 17 mph 63.3% 0.00 in 663 W/m2
10:04 59.9 °F 46.7 °F 29.83 in WNW 4.3 mph 17 mph 61.8% 0.00 in 698 W/m2
10:09 59.8 °F 46.2 °F 29.83 in NW 2.2 mph 14 mph 60.8% 0.00 in 710 W/m2
10:14 59.7 °F 46.8 °F 29.83 in NW 2 mph 16 mph 62.5% 0.00 in 707 W/m2
10:19 59.7 °F 46.3 °F 29.83 in NW 4.5 mph 16 mph 61.1% 0.00 in 707 W/m2
10:24 59.6 °F 46.4 °F 29.82 in WNW 3.2 mph 16 mph 61.6% 0.00 in 675 W/m2
10:29 59.6 °F 46.5 °F 29.83 in WNW 3.7 mph 16 mph 61.7% 0.00 in 691 W/m2
10:34 59.9 °F 46.5 °F 29.83 in NW 1.7 mph 16 mph 61.2% 0.00 in 694 W/m2
10:39 60.2 °F 46.6 °F 29.83 in NW 4.3 mph 15 mph 60.6% 0.00 in 795 W/m2
10:44 60.5 °F 47 °F 29.83 in NW 1.5 mph 15 mph 61.2% 0.00 in 796 W/m2
10:49 60.7 °F 46.2 °F 29.83 in NW 3.7 mph 15 mph 58.7% 0.00 in 756 W/m2
10:54 60.6 °F 45.4 °F 29.83 in NW 4.6 mph 17 mph 57.3% 0.00 in 766 W/m2
10:59 60.4 °F 45.5 °F 29.82 in NW 6.3 mph 19 mph 57.8% 0.00 in 735 W/m2
11:04 60.2 °F 45.1 °F 29.82 in NW 4.3 mph 19 mph 57.3% 0.00 in 742 W/m2
11:09 60 °F 45.1 °F 29.82 in NW 6 mph 20 mph 57.7% 0.00 in 766 W/m2
11:14 59.9 °F 45.1 °F 29.82 in NW 4.7 mph 20 mph 58% 0.00 in 770 W/m2
11:19 60 °F 45.1 °F 29.83 in NW 6.2 mph 20 mph 57.7% 0.00 in 763 W/m2
11:24 60 °F 44.9 °F 29.83 in NW 5.8 mph 20 mph 57.2% 0.00 in 770 W/m2
11:29 60 °F 45.1 °F 29.83 in NW 4.4 mph 20 mph 57.8% 0.00 in 770 W/m2
11:34 60 °F 44.9 °F 29.83 in WNW 5.1 mph 20 mph 57.3% 0.00 in 650 W/m2
11:39 59.8 °F 45.4 °F 29.83 in WNW 6.4 mph 18 mph 59% 0.00 in 304 W/m2
11:44 59.2 °F 44.4 °F 29.83 in WNW 5.8 mph 18 mph 57.8% 0.00 in 179 W/m2
11:49 58.8 °F 44.3 °F 29.83 in WNW 7.2 mph 18 mph 58.5% 0.00 in 146 W/m2
11:54 58.6 °F 44.5 °F 29.83 in NW 2.6 mph 18 mph 59.5% 0.00 in 135 W/m2
11:59 58.7 °F 44.4 °F 29.83 in NW 6.2 mph 18 mph 59.1% 0.00 in 104 W/m2
12:00 58.7 °F 43.1 °F 29.83 in Calm   18 mph 56% 0.00 in 51 W/m2
12:09 58.3 °F 42.9 °F 29.83 in NW 5.3 mph 17 mph 56.4% 0.00 in 86 W/m2
12:14 58.1 °F 42.6 °F 29.83 in NW 6.2 mph 20 mph 56.1% 0.00 in 181 W/m2
12:19 58.1 °F 42.3 °F 29.83 in NW 5 mph 20 mph 55.7% 0.00 in 148 W/m2
12:24 58.1 °F 42.6 °F 29.82 in NW 6.8 mph 20 mph 56.1% 0.00 in 410 W/m2
12:29 58.4 °F 43.8 °F 29.82 in NW 2.1 mph 20 mph 58.3% 0.00 in 287 W/m2
12:34 58.8 °F 43 °F 29.82 in NNW 6 mph 20 mph 55.7% 0.00 in 287 W/m2
12:39 59.1 °F 42.9 °F 29.82 in WNW 4.9 mph 20 mph 54.8% 0.00 in 91 W/m2
12:44 59.1 °F 42.2 °F 29.82 in NW 7.8 mph 20 mph 53.3% 0.00 in 53 W/m2
12:49 58.9 °F 42.5 °F 29.82 in NW 2.8 mph 20 mph 54.3% 0.00 in 56 W/m2
12:54 58.9 °F 42 °F 29.82 in NW 7 mph 20 mph 53.4% 0.00 in 146 W/m2
12:59 58.9 °F 42 °F 29.82 in NW 3 mph 20 mph 53.2% 0.00 in 243 W/m2
13:04 59.1 °F 42.4 °F 29.82 in NW 4.3 mph 20 mph 53.9% 0.00 in 663 W/m2
13:09 59.3 °F 42.6 °F 29.82 in NW 4 mph 15 mph 53.8% 0.00 in 79 W/m2
13:14 59.4 °F 42.7 °F 29.81 in NW 3.8 mph 15 mph 53.9% 0.00 in 135 W/m2
13:19 59.6 °F 43 °F 29.81 in NW 1.8 mph 15 mph 54.2% 0.00 in 67 W/m2
13:24 59.7 °F 42.6 °F 29.81 in NW 4.6 mph 18 mph 52.9% 0.00 in 111 W/m2
13:29 59.8 °F 41.7 °F 29.81 in NW 7.2 mph 18 mph 51.1% 0.00 in 65 W/m2
13:34 59.9 °F 41.9 °F 29.81 in WNW 5 mph 18 mph 51.1% 0.00 in 42 W/m2
13:39 60.1 °F 43 °F 29.81 in NW 3 mph 16 mph 53.1% 0.00 in 65 W/m2
13:44 60.3 °F 42.1 °F 29.81 in WNW 4.3 mph 16 mph 51% 0.00 in 60 W/m2
13:49 60.4 °F 41.8 °F 29.81 in NW 6.1 mph 17 mph 50.2% 0.00 in 42 W/m2
14:00 60.6 °F 41.4 °F 29.81 in NW 4 mph 19 mph 49% 0.00 in 47 W/m2
14:30 60.5 °F 41.3 °F 29.81 in WNW 5 mph 22 mph 49% 0.00 in 43 W/m2
15:00 60.3 °F 42.6 °F 29.81 in WNW 6 mph 24 mph 52% 0.00 in 67 W/m2
15:30 60 °F 41.3 °F 29.81 in NW 7 mph 22 mph 50% 0.00 in 141 W/m2
16:04 60.1 °F 40.9 °F 29.81 in WNW 4.5 mph 13 mph 49% 0.00 in 77 W/m2
16:09 60.2 °F 41.4 °F 29.82 in WNW 3.1 mph 14 mph 49.9% 0.00 in 77 W/m2
16:14 60.2 °F 41.4 °F 29.82 in NW 6.9 mph 18 mph 49.7% 0.00 in 113 W/m2
16:19 60.1 °F 41.5 °F 29.82 in NW 4.4 mph 18 mph 50.1% 0.00 in 104 W/m2
16:24 60.1 °F 42.1 °F 29.82 in WNW 3.2 mph 19 mph 51.3% 0.00 in 42 W/m2
16:29 60.1 °F 42.2 °F 29.82 in WNW 5.2 mph 19 mph 51.6% 0.00 in 47 W/m2
16:34 60.1 °F 42.3 °F 29.82 in WNW 3.2 mph 19 mph 51.9% 0.00 in 42 W/m2
16:39 59.9 °F 42.1 °F 29.82 in NW 6.4 mph 16 mph 51.7% 0.00 in 46 W/m2
16:44 59.7 °F 41.3 °F 29.82 in NW 5.8 mph 16 mph 50.3% 0.00 in 40 W/m2
16:49 59.5 °F 41.2 °F 29.82 in NW 6.6 mph 19 mph 50.5% 0.00 in 40 W/m2
16:54 59.3 °F 40.7 °F 29.82 in NW 5.5 mph 19 mph 49.9% 0.00 in 44 W/m2
16:59 59.2 °F 41.4 °F 29.82 in NW 4 mph 19 mph 51.4% 0.00 in 30 W/m2
17:04 59.3 °F 41.9 °F 29.82 in WNW 2.9 mph 19 mph 52.5% 0.00 in 30 W/m2
17:09 59.2 °F 42.1 °F 29.82 in WNW 2.3 mph 13 mph 53.1% 0.00 in 30 W/m2
17:14 59.2 °F 42 °F 29.82 in NW 4.5 mph 17 mph 52.8% 0.00 in 30 W/m2
17:19 59.1 °F 41.5 °F 29.82 in NW 4.5 mph 17 mph 52% 0.00 in 26 W/m2
17:24 58.9 °F 41.4 °F 29.82 in NW 4.3 mph 17 mph 52.3% 0.00 in 26 W/m2
17:29 58.7 °F 41.4 °F 29.82 in WNW 4.5 mph 17 mph 52.6% 0.00 in 25 W/m2
17:34 58.5 °F 41 °F 29.82 in NW 4.6 mph 17 mph 52.1% 0.00 in 25 W/m2
17:39 58.3 °F 41 °F 29.83 in NW 4.3 mph 18 mph 52.5% 0.00 in 25 W/m2
17:44 58 °F 41 °F 29.83 in NW 4.7 mph 18 mph 53% 0.00 in 23 W/m2
17:49 57.8 °F 41.4 °F 29.83 in WNW 2.8 mph 18 mph 54.2% 0.00 in 21 W/m2
17:54 57.6 °F 41.5 °F 29.83 in WNW 3.4 mph 18 mph 54.8% 0.00 in 21 W/m2
17:59 57.4 °F 41.4 °F 29.83 in WNW 3.5 mph 18 mph 55.1% 0.00 in 19 W/m2
18:04 57.2 °F 41.2 °F 29.83 in NW 5 mph 18 mph 55% 0.00 in 18 W/m2
18:09 56.9 °F 41 °F 29.84 in NW 4 mph 14 mph 55.1% 0.00 in 16 W/m2
18:14 56.7 °F 41.1 °F 29.84 in WNW 4.6 mph 16 mph 55.8% 0.00 in 14 W/m2
18:19 56.4 °F 40.9 °F 29.84 in WNW 3.6 mph 16 mph 55.9% 0.00 in 12 W/m2
18:24 56.2 °F 40.7 °F 29.84 in WNW 7.1 mph 17 mph 56% 0.00 in 11 W/m2
18:29 55.9 °F 40.4 °F 29.84 in WNW 5 mph 17 mph 56% 0.00 in 9 W/m2
18:34 55.6 °F 40.4 °F 29.84 in NW 3.3 mph 17 mph 56.3% 0.00 in 7 W/m2
18:39 55.4 °F 40.2 °F 29.84 in NW 4.9 mph 17 mph 56.5% 0.00 in 5 W/m2
18:44 55.1 °F 39.8 °F 29.84 in NW 4.9 mph 17 mph 56.2% 0.00 in 0 W/m2
18:49 54.9 °F 39.8 °F 29.84 in WNW 4.5 mph 17 mph 56.6% 0.00 in 0 W/m2
18:54 54.7 °F 39.8 °F 29.85 in WNW 2.7 mph 17 mph 57% 0.00 in 0 W/m2
18:59 54.5 °F 39.7 °F 29.85 in NW 3.3 mph 17 mph 57.3% 0.00 in 0 W/m2
19:04 54.2 °F 39.4 °F 29.85 in NW 6.3 mph 18 mph 57.1% 0.00 in 0 W/m2
19:09 54.1 °F 39.3 °F 29.85 in WNW 4.2 mph 18 mph 57.1% 0.00 in 0 W/m2
19:14 54 °F 39.5 °F 29.86 in NW 2 mph 18 mph 58% 0.00 in 0 W/m2
19:19 53.8 °F 39.4 °F 29.86 in WNW 3 mph 18 mph 58% 0.00 in 0 W/m2
19:24 53.6 °F 39.3 °F 29.86 in NW 3.9 mph 18 mph 58.2% 0.00 in 0 W/m2
19:29 53.4 °F 39 °F 29.86 in NW 4.6 mph 18 mph 58% 0.00 in 0 W/m2
19:34 53.3 °F 39 °F 29.86 in NW 1 mph 18 mph 58.3% 0.00 in 0 W/m2
19:39 53.2 °F 39 °F 29.87 in NNW 2.3 mph 11 mph 58.3% 0.00 in 0 W/m2
19:44 53.1 °F 39 °F 29.87 in North 0.7 mph 11 mph 58.7% 0.00 in 0 W/m2
19:49 52.9 °F 39.1 °F 29.87 in NW 2 mph 11 mph 59.3% 0.00 in 0 W/m2
19:54 52.7 °F 38.9 °F 29.87 in NW 3.4 mph 13 mph 59.1% 0.00 in 0 W/m2
19:59 52.6 °F 38.9 °F 29.87 in NNW 0.4 mph 13 mph 59.4% 0.00 in 0 W/m2
20:04 52.5 °F 39 °F 29.88 in NW 0.5 mph 1 mph 60% 0.00 in 0 W/m2
20:09 52.4 °F 38.9 °F 29.88 in NW 0.9 mph 7 mph 59.8% 0.00 in 0 W/m2
20:14 52.4 °F 38.9 °F 29.88 in NNW 1 mph 9 mph 60% 0.00 in 0 W/m2
20:19 52.3 °F 38.8 °F 29.88 in NW 2.7 mph 12 mph 60% 0.00 in 0 W/m2
20:24 52.2 °F 38.7 °F 29.88 in NNW 1.4 mph 12 mph 60% 0.00 in 0 W/m2
20:29 52.1 °F 38.7 °F 29.88 in NW 1.9 mph 18 mph 60% 0.00 in 0 W/m2
20:34 52 °F 38.6 °F 29.87 in NW 1.1 mph 18 mph 60% 0.00 in 0 W/m2
20:39 51.9 °F 38.7 °F 29.88 in WNW 2.7 mph 14 mph 60.5% 0.00 in 0 W/m2
20:44 51.8 °F 38.8 °F 29.88 in WNW 0.8 mph 14 mph 60.8% 0.00 in 0 W/m2
20:49 51.7 °F 38.7 °F 29.88 in WNW 1.9 mph 14 mph 61% 0.00 in 0 W/m2
20:54 51.7 °F 38.7 °F 29.88 in NW 1.2 mph 14 mph 61% 0.00 in 0 W/m2
20:59 51.7 °F 38.6 °F 29.89 in NW 3 mph 14 mph 60.8% 0.00 in 0 W/m2
21:04 51.7 °F 38.6 °F 29.89 in WNW 1.5 mph 14 mph 60.8% 0.00 in 0 W/m2
21:09 51.7 °F 38.7 °F 29.89 in NW 2 mph 10 mph 61% 0.00 in 0 W/m2
21:14 51.6 °F 38.5 °F 29.89 in NNW 0.4 mph 10 mph 60.8% 0.00 in 0 W/m2
21:19 51.6 °F 38.6 °F 29.89 in NNW 0.1 mph 10 mph 61% 0.00 in 0 W/m2
21:24 51.5 °F 38.6 °F 29.90 in NW 2.3 mph 14 mph 61.2% 0.00 in 0 W/m2
21:29 51.5 °F 38.6 °F 29.90 in NW 3 mph 17 mph 61.2% 0.00 in 0 W/m2
21:34 51.5 °F 38.5 °F 29.90 in WNW 3.3 mph 17 mph 61% 0.00 in 0 W/m2
21:39 51.5 °F 38.5 °F 29.90 in NW 2.7 mph 13 mph 61% 0.00 in 0 W/m2
21:44 51.4 °F 38.3 °F 29.90 in NW 3.7 mph 13 mph 60.6% 0.00 in 0 W/m2
21:49 51.5 °F 38.4 °F 29.90 in WNW 1.8 mph 13 mph 60.8% 0.00 in 0 W/m2
21:54 51.4 °F 38.4 °F 29.90 in NW 0.2 mph 13 mph 61% 0.00 in 0 W/m2
21:59 51.3 °F 38.7 °F 29.90 in NW 1.2 mph 13 mph 61.8% 0.00 in 0 W/m2
22:04 51.2 °F 38.4 °F 29.90 in NNW 0.7 mph 13 mph 61.5% 0.00 in 0 W/m2
22:09 51.1 °F 38.5 °F 29.90 in NW 2.4 mph 17 mph 62% 0.00 in 0 W/m2
22:14 51 °F 38.4 °F 29.90 in NW 1.7 mph 17 mph 62% 0.00 in 0 W/m2
22:19 50.9 °F 38.4 °F 29.91 in WNW 3.4 mph 17 mph 62% 0.00 in 0 W/m2
22:24 50.9 °F 38.4 °F 29.91 in WNW 0.9 mph 17 mph 62% 0.00 in 0 W/m2
22:29 50.8 °F 38.3 °F 29.91 in NW 3.5 mph 18 mph 62.1% 0.00 in 0 W/m2
22:34 50.8 °F 38.3 °F 29.92 in NW 3.1 mph 18 mph 62% 0.00 in 0 W/m2
22:39 50.8 °F 38.5 °F 29.92 in WNW 2.4 mph 11 mph 62.8% 0.00 in 0 W/m2
22:44 50.6 °F 38.6 °F 29.92 in WNW 0.8 mph 11 mph 63.2% 0.00 in 0 W/m2
22:49 50.5 °F 38.6 °F 29.92 in WNW 2.8 mph 11 mph 63.4% 0.00 in 0 W/m2
22:54 50.4 °F 38.7 °F 29.92 in WNW 2.2 mph 12 mph 64% 0.00 in 0 W/m2
22:59 50.3 °F 38.5 °F 29.92 in NW 0.5 mph 12 mph 63.8% 0.00 in 0 W/m2
23:04 50.3 °F 38.6 °F 29.93 in WNW 1.1 mph 12 mph 64% 0.00 in 0 W/m2
23:09 50.1 °F 38.5 °F 29.93 in WNW 1.1 mph 12 mph 64.1% 0.00 in 0 W/m2
23:14 50.1 °F 38.5 °F 29.93 in NW 2.1 mph 12 mph 64.4% 0.00 in 0 W/m2
23:19 50 °F 38.5 °F 29.94 in WNW 1.9 mph 12 mph 64.6% 0.00 in 0 W/m2
23:24 49.9 °F 38.6 °F 29.94 in WNW 1.7 mph 13 mph 64.8% 0.00 in 0 W/m2
23:29 49.9 °F 38.6 °F 29.94 in WNW 2.3 mph 17 mph 65% 0.00 in 0 W/m2
23:34 49.8 °F 38.6 °F 29.94 in West 1.1 mph 17 mph 65% 0.00 in 0 W/m2
23:39 49.8 °F 38.8 °F 29.94 in WNW 1 mph 10 mph 65.8% 0.00 in 0 W/m2
23:44 49.6 °F 38.8 °F 29.94 in WNW 0.6 mph 10 mph 66.1% 0.00 in 0 W/m2
23:49 49.5 °F 39 °F 29.94 in NW 0.3 mph 10 mph 67% 0.00 in 0 W/m2
23:54 49.3 °F 38.9 °F 29.94 in WNW 1.4 mph 11 mph 67% 0.00 in 0 W/m2
23:59 49.2 °F 38.7 °F 29.93 in WNW 1.9 mph 11 mph 67% 0.00 in 0 W/m2
Hartford County Weather
Compliments of Weather Underground - 2 mb